createdAt,value
2018-03-25T00:00:12.556Z,38.03
2018-03-25T00:02:40.129Z,39.37
2018-03-25T00:05:07.735Z,38.37
2018-03-25T00:07:35.305Z,39.40
2018-03-25T00:10:02.867Z,40.30
2018-03-25T00:12:30.479Z,42.03
2018-03-25T00:14:58.057Z,39.07
2018-03-25T00:17:25.621Z,40.33
2018-03-25T00:19:53.213Z,39.23
2018-03-25T00:22:20.777Z,42.80
2018-03-25T00:24:48.341Z,37.90
2018-03-25T00:27:15.932Z,38.93
2018-03-25T00:29:43.502Z,42.00
2018-03-25T00:32:11.071Z,42.37
2018-03-25T00:34:38.775Z,39.53
2018-03-25T00:37:06.346Z,40.07
2018-03-25T00:39:33.914Z,40.07
2018-03-25T00:42:01.586Z,39.20
2018-03-25T00:44:29.158Z,27.80
2018-03-25T00:46:56.746Z,25.73
2018-03-25T00:49:24.342Z,26.77
2018-03-25T00:51:51.912Z,26.70
2018-03-25T00:54:19.479Z,27.40
2018-03-25T00:56:47.068Z,27.40
2018-03-25T00:59:14.670Z,27.30
2018-03-25T01:01:42.236Z,26.93
2018-03-25T01:04:09.875Z,26.00
2018-03-25T01:06:37.441Z,26.17
2018-03-25T01:09:05.053Z,24.50
2018-03-25T01:11:32.673Z,25.40
2018-03-25T01:14:00.245Z,25.97
2018-03-25T01:16:27.820Z,26.77
2018-03-25T01:18:55.422Z,27.93
2018-03-25T01:21:23.006Z,24.40
2018-03-25T01:23:50.593Z,25.63
2018-03-25T01:26:18.210Z,24.90
2018-03-25T01:28:45.795Z,26.50
2018-03-25T01:31:13.374Z,26.67
2018-03-25T01:33:41.003Z,26.60
2018-03-25T01:36:08.585Z,26.70
2018-03-25T01:38:36.163Z,26.37
2018-03-25T01:41:03.774Z,25.70
2018-03-25T01:43:31.360Z,24.30
2018-03-25T01:45:58.937Z,25.50
2018-03-25T01:48:26.561Z,26.93
2018-03-25T01:50:54.137Z,26.93
2018-03-25T01:53:21.719Z,24.67
2018-03-25T01:55:49.374Z,23.77
2018-03-25T01:58:16.958Z,25.93
2018-03-25T02:00:44.550Z,26.50
2018-03-25T02:03:12.170Z,29.17
2018-03-25T02:05:39.746Z,24.23
2018-03-25T02:08:07.321Z,26.00
2018-03-25T02:10:34.929Z,25.47
2018-03-25T02:13:02.514Z,25.90
2018-03-25T02:15:30.096Z,25.20
2018-03-25T02:17:57.749Z,28.40
2018-03-25T02:20:25.335Z,26.90
2018-03-25T02:22:52.905Z,23.00
2018-03-25T02:25:20.510Z,27.00
2018-03-25T02:27:48.092Z,28.17
2018-03-25T02:30:15.671Z,29.50
2018-03-25T02:32:43.316Z,26.77
2018-03-25T02:35:10.898Z,28.83
2018-03-25T02:37:38.484Z,29.13
2018-03-25T02:40:06.105Z,30.60
2018-03-25T02:42:33.678Z,30.97
2018-03-25T02:45:01.255Z,30.47
2018-03-25T02:47:28.881Z,29.87
2018-03-25T02:49:56.504Z,29.10
2018-03-25T02:52:24.089Z,29.40
2018-03-25T02:54:51.713Z,28.50
2018-03-25T02:57:19.322Z,28.17
2018-03-25T02:59:46.919Z,30.23
2018-03-25T03:02:14.582Z,27.40
2018-03-25T03:04:42.174Z,28.30
2018-03-25T03:07:09.761Z,28.63
2018-03-25T03:09:37.373Z,30.10
2018-03-25T03:12:04.966Z,27.77
2018-03-25T03:14:32.556Z,32.80
2018-03-25T03:17:00.171Z,26.33
2018-03-25T03:19:27.766Z,29.03
2018-03-25T03:21:55.345Z,28.37
2018-03-25T03:24:22.970Z,29.33
2018-03-25T03:26:50.562Z,26.87
2018-03-25T03:29:18.148Z,31.73
2018-03-25T03:31:45.779Z,34.73
2018-03-25T03:34:13.365Z,33.87
2018-03-25T03:36:41.005Z,33.87
2018-03-25T03:39:08.755Z,33.10
2018-03-25T03:41:36.329Z,34.70
2018-03-25T03:44:03.935Z,32.07
2018-03-25T03:46:31.595Z,33.57
2018-03-25T03:48:59.195Z,32.63
2018-03-25T03:51:26.787Z,33.30
2018-03-25T03:53:54.407Z,31.07
2018-03-25T03:56:22.164Z,31.20
2018-03-25T03:58:49.748Z,35.13
2018-03-25T04:01:17.354Z,37.73
2018-03-25T04:03:44.935Z,34.00
2018-03-25T04:06:12.512Z,36.20
2018-03-25T04:08:40.135Z,34.80
2018-03-25T04:11:07.714Z,36.17
2018-03-25T04:13:35.311Z,36.67
2018-03-25T04:16:02.937Z,30.70
2018-03-25T04:18:30.524Z,32.50
2018-03-25T04:20:58.109Z,31.90
2018-03-25T04:23:25.733Z,31.77
2018-03-25T04:25:53.331Z,31.23
2018-03-25T04:28:20.925Z,30.83
2018-03-25T04:30:48.564Z,32.13
2018-03-25T04:33:16.153Z,30.33
2018-03-25T04:35:43.745Z,30.90
2018-03-25T04:38:11.362Z,29.00
2018-03-25T04:40:38.947Z,32.23
2018-03-25T04:43:06.531Z,32.83
2018-03-25T04:45:34.394Z,31.87
2018-03-25T04:48:01.966Z,33.27
2018-03-25T04:50:29.664Z,29.63
2018-03-25T04:52:57.314Z,29.80
2018-03-25T04:55:24.910Z,30.93
2018-03-25T04:57:52.497Z,28.67
2018-03-25T05:00:20.117Z,27.70
2018-03-25T05:02:47.707Z,30.80
2018-03-25T05:05:15.294Z,31.70
2018-03-25T05:07:42.918Z,31.17
2018-03-25T05:10:10.523Z,29.77
2018-03-25T05:12:38.104Z,28.97
2018-03-25T05:15:05.722Z,26.80
2018-03-25T05:17:33.306Z,32.20
2018-03-25T05:20:00.886Z,33.73
2018-03-25T05:22:28.513Z,34.17
2018-03-25T05:24:56.095Z,30.47
2018-03-25T05:27:23.679Z,29.53
2018-03-25T05:29:51.296Z,25.40
2018-03-25T05:32:18.879Z,26.17
2018-03-25T05:34:46.495Z,28.20
2018-03-25T05:37:14.119Z,24.70
2018-03-25T05:39:41.778Z,25.93
2018-03-25T05:42:09.995Z,23.43
2018-03-25T05:44:37.614Z,22.83
2018-03-25T05:47:05.196Z,21.30
2018-03-25T05:49:32.786Z,22.80
2018-03-25T05:52:00.403Z,22.47
2018-03-25T05:54:27.985Z,24.20
2018-03-25T05:56:55.574Z,22.07
2018-03-25T05:59:23.196Z,21.50
2018-03-25T06:01:50.778Z,21.77
2018-03-25T06:04:18.363Z,24.03
2018-03-25T06:06:45.999Z,26.10
2018-03-25T06:09:13.579Z,26.67
2018-03-25T06:11:41.156Z,26.40
2018-03-25T06:14:08.772Z,26.63
2018-03-25T06:16:36.353Z,25.97
2018-03-25T06:19:03.925Z,26.03
2018-03-25T06:21:31.554Z,24.40
2018-03-25T06:23:59.121Z,24.77
2018-03-25T06:26:26.741Z,25.00
2018-03-25T06:28:54.330Z,24.87
2018-03-25T06:31:21.925Z,22.53
2018-03-25T06:33:49.515Z,23.03
2018-03-25T06:36:17.128Z,24.10
2018-03-25T06:38:44.713Z,25.80
2018-03-25T06:41:12.295Z,23.37
2018-03-25T06:43:39.902Z,23.10
2018-03-25T06:46:07.533Z,22.50
2018-03-25T06:48:35.135Z,26.53
2018-03-25T06:51:02.777Z,22.43
2018-03-25T06:53:30.367Z,22.77
2018-03-25T06:55:57.957Z,23.70
2018-03-25T06:58:25.563Z,23.37
2018-03-25T07:00:53.150Z,27.20
2018-03-25T07:03:20.738Z,27.10
2018-03-25T07:05:48.352Z,26.00
2018-03-25T07:08:15.937Z,28.70
2018-03-25T07:10:43.617Z,27.83
2018-03-25T07:13:11.267Z,36.30
2018-03-25T07:15:38.836Z,42.03
2018-03-25T07:18:06.411Z,40.07
2018-03-25T07:20:34.023Z,36.30
2018-03-25T07:23:01.585Z,36.53
2018-03-25T07:25:29.234Z,25.53
2018-03-25T07:27:56.866Z,22.60
2018-03-25T07:30:24.443Z,23.07
2018-03-25T07:32:52.040Z,21.87
2018-03-25T07:35:19.639Z,24.37
2018-03-25T07:37:47.214Z,23.10
2018-03-25T07:40:14.790Z,21.27
2018-03-25T07:42:42.406Z,22.50
2018-03-25T07:45:09.980Z,23.80
2018-03-25T07:47:37.562Z,26.53
2018-03-25T07:50:05.246Z,25.90
2018-03-25T07:52:32.835Z,23.93
2018-03-25T07:55:00.413Z,25.43
2018-03-25T07:57:28.017Z,25.37
2018-03-25T07:59:55.614Z,25.00
2018-03-25T08:02:23.234Z,30.60
2018-03-25T08:04:50.846Z,30.97
2018-03-25T08:07:18.502Z,27.20
2018-03-25T08:09:46.101Z,29.00
2018-03-25T08:12:13.714Z,28.00
2018-03-25T08:14:41.295Z,28.00
2018-03-25T08:17:08.865Z,25.43
2018-03-25T08:19:36.467Z,26.33
2018-03-25T08:22:04.200Z,28.00
2018-03-25T08:24:31.886Z,22.53
2018-03-25T08:26:59.667Z,20.33
2018-03-25T08:29:27.244Z,22.43
2018-03-25T08:31:54.824Z,24.30
2018-03-25T08:34:22.484Z,24.80
2018-03-25T08:36:50.070Z,26.10
2018-03-25T08:39:17.639Z,26.10
2018-03-25T08:41:45.241Z,26.60
2018-03-25T08:44:12.837Z,20.10
2018-03-25T08:46:40.418Z,28.87
2018-03-25T08:49:08.030Z,14.83
2018-03-25T08:51:35.604Z,20.27
2018-03-25T08:54:03.321Z,19.80
2018-03-25T08:56:31.007Z,23.80
2018-03-25T08:58:58.648Z,25.87
2018-03-25T09:01:26.283Z,25.00
2018-03-25T09:03:53.972Z,17.40
2018-03-25T09:06:21.714Z,19.40
2018-03-25T09:08:49.302Z,17.67
2018-03-25T09:11:16.976Z,19.00
2018-03-25T09:13:44.883Z,24.87
2018-03-25T09:16:13.101Z,19.60
2018-03-25T09:18:40.940Z,17.93
2018-03-25T09:21:08.519Z,19.00
2018-03-25T09:23:36.105Z,18.93
2018-03-25T09:26:03.723Z,16.70
2018-03-25T09:28:31.307Z,15.77
2018-03-25T09:30:58.877Z,16.17
2018-03-25T09:33:26.476Z,17.60
2018-03-25T09:35:54.045Z,16.40
2018-03-25T09:38:21.618Z,16.77
2018-03-25T09:40:49.224Z,15.57
2018-03-25T09:43:16.796Z,15.47
2018-03-25T09:45:44.437Z,14.33
2018-03-25T09:48:12.066Z,14.97
2018-03-25T09:50:39.663Z,17.10
2018-03-25T09:53:07.226Z,20.90
2018-03-25T09:55:34.846Z,16.43
2018-03-25T09:58:02.504Z,16.63
2018-03-25T10:00:30.130Z,16.03
2018-03-25T10:02:59.738Z,22.67
2018-03-25T10:05:27.330Z,20.47
2018-03-25T10:07:54.952Z,15.67
2018-03-25T10:10:22.593Z,15.30
2018-03-25T10:12:50.179Z,14.30
2018-03-25T10:15:17.758Z,17.03
2018-03-25T10:17:45.370Z,13.03
2018-03-25T10:20:12.962Z,22.10
2018-03-25T10:22:40.554Z,11.97
2018-03-25T10:25:09.021Z,18.93
2018-03-25T10:27:36.626Z,18.10
2018-03-25T10:30:04.253Z,19.30
2018-03-25T10:32:31.874Z,16.00
2018-03-25T10:34:59.446Z,14.73
2018-03-25T10:37:27.029Z,15.37
2018-03-25T10:39:54.640Z,16.30
2018-03-25T10:42:22.255Z,11.53
2018-03-25T10:44:49.831Z,13.47
2018-03-25T10:47:17.495Z,11.87
2018-03-25T10:49:45.098Z,11.53
2018-03-25T10:52:12.671Z,10.47
2018-03-25T10:54:40.290Z,13.07
2018-03-25T10:57:07.901Z,20.77
2018-03-25T10:59:35.473Z,16.97
2018-03-25T11:02:03.082Z,15.73
2018-03-25T11:04:30.662Z,18.97
2018-03-25T11:06:58.331Z,18.70
2018-03-25T11:09:26.034Z,14.93
2018-03-25T11:11:53.622Z,16.63
2018-03-25T11:14:21.275Z,14.40
2018-03-25T11:16:48.897Z,13.43
2018-03-25T11:19:16.495Z,15.03
2018-03-25T11:21:44.226Z,13.97
2018-03-25T11:24:11.875Z,15.07
2018-03-25T11:26:39.459Z,14.80
2018-03-25T11:29:07.209Z,17.40
2018-03-25T11:31:34.895Z,16.80
2018-03-25T11:34:02.473Z,17.23
2018-03-25T11:36:30.055Z,16.23
2018-03-25T11:38:57.662Z,15.43
2018-03-25T11:41:25.229Z,15.93
2018-03-25T11:43:52.836Z,19.23
2018-03-25T11:46:20.477Z,16.33
2018-03-25T11:48:48.102Z,18.03
2018-03-25T11:51:15.694Z,16.90
2018-03-25T11:53:43.319Z,16.90
2018-03-25T11:56:10.905Z,18.57
2018-03-25T11:58:38.495Z,18.60
2018-03-25T12:01:06.117Z,23.30
2018-03-25T12:03:33.695Z,21.10
2018-03-25T12:06:01.274Z,20.53
2018-03-25T12:08:28.873Z,19.20
2018-03-25T12:10:56.461Z,20.90
2018-03-25T12:13:24.047Z,20.37
2018-03-25T12:15:51.664Z,18.47
2018-03-25T12:18:19.236Z,17.87
2018-03-25T12:20:46.843Z,19.60
2018-03-25T12:23:14.468Z,20.40
2018-03-25T12:25:42.042Z,20.03
2018-03-25T12:28:09.622Z,23.90
2018-03-25T12:30:37.278Z,21.03
2018-03-25T12:33:04.846Z,19.30
2018-03-25T12:35:32.440Z,19.40
2018-03-25T12:38:00.075Z,17.63
2018-03-25T12:40:27.642Z,17.30
2018-03-25T12:42:55.219Z,17.80
2018-03-25T12:45:22.835Z,17.10
2018-03-25T12:47:50.412Z,17.93
2018-03-25T12:50:17.997Z,17.20
2018-03-25T12:52:45.599Z,18.70
2018-03-25T12:55:13.298Z,17.83
2018-03-25T12:57:40.879Z,16.30
2018-03-25T13:00:08.484Z,15.27
2018-03-25T13:02:36.069Z,15.13
2018-03-25T13:07:36.389Z,16.37
2018-03-25T13:10:04.020Z,13.83
2018-03-25T13:12:31.596Z,14.33
2018-03-25T13:14:59.205Z,14.40
2018-03-25T13:17:26.772Z,57.13
2018-03-25T13:19:54.342Z,74.77
2018-03-25T13:22:21.959Z,32.50
2018-03-25T13:24:49.566Z,31.30
2018-03-25T13:27:17.138Z,27.63
2018-03-25T13:29:44.825Z,36.03
2018-03-25T13:32:12.393Z,38.77
2018-03-25T13:34:40.001Z,27.57
2018-03-25T13:37:07.617Z,30.27
2018-03-25T13:39:35.195Z,38.27
2018-03-25T13:42:02.809Z,33.53
2018-03-25T13:44:30.408Z,41.80
2018-03-25T13:46:57.975Z,50.90
2018-03-25T13:49:25.572Z,47.50
2018-03-25T13:51:53.173Z,36.40
2018-03-25T13:54:20.751Z,35.23
2018-03-25T13:56:48.318Z,40.23
2018-03-25T13:59:15.921Z,38.47
2018-03-25T14:01:43.500Z,41.30
2018-03-25T14:04:11.072Z,48.33
2018-03-25T14:06:39.558Z,39.27
2018-03-25T14:09:07.154Z,36.37
2018-03-25T14:11:34.736Z,41.97
2018-03-25T14:14:02.698Z,42.17
2018-03-25T14:16:30.274Z,38.00
2018-03-25T14:18:57.840Z,38.03
2018-03-25T14:21:25.435Z,45.93
2018-03-25T14:23:53.014Z,66.70
2018-03-25T14:26:20.581Z,59.57
2018-03-25T14:28:48.173Z,51.40
2018-03-25T14:31:15.753Z,48.17
2018-03-25T14:33:43.327Z,45.90
2018-03-25T14:36:10.941Z,51.33
2018-03-25T14:38:38.514Z,55.70
2018-03-25T14:41:06.092Z,47.47
2018-03-25T14:43:33.693Z,41.43
2018-03-25T14:46:01.257Z,36.90
2018-03-25T14:48:28.829Z,33.43
2018-03-25T14:50:56.437Z,37.63
2018-03-25T14:53:24.140Z,47.13
2018-03-25T14:55:51.720Z,48.47
2018-03-25T14:58:19.373Z,62.50
2018-03-25T15:00:46.962Z,62.00
2018-03-25T15:03:14.524Z,53.63
2018-03-25T15:05:42.217Z,47.90
2018-03-25T15:08:09.782Z,69.23
2018-03-25T15:10:37.364Z,58.07
2018-03-25T15:13:05.224Z,62.70
2018-03-25T15:15:32.811Z,50.77
2018-03-25T15:18:00.398Z,50.30
2018-03-25T15:20:28.061Z,53.37
2018-03-25T15:22:55.770Z,50.70
2018-03-25T15:25:23.509Z,43.97
2018-03-25T15:27:51.289Z,40.77
2018-03-25T15:30:18.854Z,40.00
2018-03-25T15:32:46.478Z,61.53
2018-03-25T15:35:14.089Z,49.30
2018-03-25T15:37:41.670Z,93.63
2018-03-25T15:40:09.242Z,42.53
2018-03-25T15:42:36.866Z,42.57
2018-03-25T15:45:04.461Z,42.07
2018-03-25T15:47:32.035Z,41.80
2018-03-25T15:49:59.659Z,43.90
2018-03-25T15:52:27.224Z,43.00
2018-03-25T15:54:54.803Z,60.70
2018-03-25T15:57:22.430Z,61.53
2018-03-25T15:59:50.005Z,59.17
2018-03-25T16:02:18.042Z,39.37
2018-03-25T16:04:45.653Z,34.07
2018-03-25T16:07:13.243Z,34.97
2018-03-25T16:09:40.836Z,41.50
2018-03-25T16:12:08.463Z,42.30
2018-03-25T16:14:36.145Z,40.50
2018-03-25T16:17:03.725Z,42.20
2018-03-25T16:19:31.325Z,33.40
2018-03-25T16:21:58.914Z,25.70
2018-03-25T16:24:26.491Z,27.40
2018-03-25T16:26:54.112Z,25.93
2018-03-25T16:29:21.705Z,27.53
2018-03-25T16:31:49.314Z,29.93
2018-03-25T16:34:16.916Z,21.73
2018-03-25T16:36:44.499Z,20.93
2018-03-25T16:39:12.076Z,27.37
2018-03-25T16:41:39.688Z,22.10
2018-03-25T16:44:07.267Z,25.83
2018-03-25T16:46:34.858Z,22.90
2018-03-25T16:49:02.460Z,18.10
2018-03-25T16:51:30.048Z,20.20
2018-03-25T16:53:57.613Z,19.17
2018-03-25T16:56:25.235Z,42.17
2018-03-25T16:58:52.802Z,27.97
2018-03-25T17:01:20.369Z,29.10
2018-03-25T17:03:48.013Z,27.73
2018-03-25T17:06:15.583Z,26.27
2018-03-25T17:08:43.175Z,31.17
2018-03-25T17:11:10.807Z,30.07
2018-03-25T17:13:38.372Z,20.23
2018-03-25T17:16:06.753Z,24.50
2018-03-25T17:18:34.456Z,16.53
2018-03-25T17:21:02.052Z,23.10
2018-03-25T17:23:29.659Z,20.10
2018-03-25T17:25:57.261Z,23.60
2018-03-25T17:28:24.871Z,20.20
2018-03-25T17:30:52.446Z,77.13
2018-03-25T17:33:20.170Z,24.03
2018-03-25T17:35:47.744Z,19.83
2018-03-25T17:38:15.321Z,20.67
2018-03-25T17:40:42.965Z,22.47
2018-03-25T17:43:10.538Z,23.13
2018-03-25T17:45:38.114Z,18.97
2018-03-25T17:48:05.734Z,20.50
2018-03-25T17:50:33.314Z,18.67
2018-03-25T17:53:00.889Z,16.90
2018-03-25T17:55:29.082Z,19.43
2018-03-25T17:57:56.657Z,20.17
2018-03-25T18:00:24.337Z,18.23
2018-03-25T18:02:51.948Z,20.77
2018-03-25T18:05:19.523Z,21.57
2018-03-25T18:07:47.093Z,19.87
2018-03-25T18:10:14.699Z,19.87
2018-03-25T18:12:42.280Z,19.57
2018-03-25T18:15:09.851Z,20.33
2018-03-25T18:17:37.455Z,22.30
2018-03-25T18:20:05.021Z,20.10
2018-03-25T18:22:32.681Z,20.30
2018-03-25T18:25:00.279Z,19.37
2018-03-25T18:27:27.898Z,20.43
2018-03-25T18:29:55.490Z,20.10
2018-03-25T18:32:23.089Z,17.73
2018-03-25T18:34:50.655Z,14.53
2018-03-25T18:37:18.238Z,15.43
2018-03-25T18:39:45.890Z,14.70
2018-03-25T18:42:13.485Z,16.97
2018-03-25T18:44:41.076Z,18.43
2018-03-25T18:47:08.686Z,19.50
2018-03-25T18:49:36.259Z,19.20
2018-03-25T18:52:03.870Z,18.47
2018-03-25T18:54:31.478Z,19.43
2018-03-25T18:56:59.064Z,20.27
2018-03-25T18:59:26.646Z,19.40
2018-03-25T19:01:54.256Z,21.83
2018-03-25T19:04:21.875Z,21.10
2018-03-25T19:06:49.463Z,22.70
2018-03-25T19:09:17.107Z,22.20
2018-03-25T19:11:44.693Z,21.10
2018-03-25T19:14:12.335Z,22.20
2018-03-25T19:16:39.942Z,20.37
2018-03-25T19:19:07.519Z,20.20
2018-03-25T19:21:35.098Z,19.60
2018-03-25T19:24:02.737Z,23.40
2018-03-25T19:26:30.361Z,21.00
2018-03-25T19:28:57.973Z,23.70
2018-03-25T19:31:25.744Z,21.20
2018-03-25T19:33:53.327Z,20.33
2018-03-25T19:36:20.903Z,21.90
2018-03-25T19:38:49.200Z,23.50
2018-03-25T19:41:18.359Z,27.57
2018-03-25T19:43:46.115Z,27.77
2018-03-25T19:46:13.853Z,24.00
2018-03-25T19:48:41.426Z,25.07
2018-03-25T19:51:09.124Z,22.10
2018-03-25T19:53:36.736Z,23.53
2018-03-25T19:56:04.318Z,21.57
2018-03-25T19:58:31.888Z,21.00
2018-03-25T20:00:59.529Z,17.93
2018-03-25T20:03:27.114Z,19.87
2018-03-25T20:05:54.701Z,23.07
2018-03-25T20:08:22.378Z,20.97
2018-03-25T20:10:49.993Z,22.10
2018-03-25T20:13:17.584Z,20.93
2018-03-25T20:15:45.204Z,21.27
2018-03-25T20:18:12.785Z,21.13
2018-03-25T20:20:40.363Z,22.10
2018-03-25T20:23:08.020Z,20.33
2018-03-25T20:25:35.598Z,20.60
2018-03-25T20:28:03.224Z,20.60
2018-03-25T20:30:30.845Z,22.77
2018-03-25T20:32:58.426Z,21.20
2018-03-25T20:35:26.038Z,22.90
2018-03-25T20:37:53.650Z,20.87
2018-03-25T20:40:21.236Z,20.70
2018-03-25T20:42:48.900Z,22.30
2018-03-25T20:45:16.501Z,24.20
2018-03-25T20:47:44.090Z,24.30
2018-03-25T20:50:11.671Z,24.87
2018-03-25T20:52:39.294Z,24.43
2018-03-25T20:55:06.918Z,26.97
2018-03-25T20:57:34.479Z,24.77
2018-03-25T21:00:02.102Z,24.83
2018-03-25T21:02:29.684Z,24.73
2018-03-25T21:04:57.266Z,23.33
2018-03-25T21:07:24.870Z,20.87
2018-03-25T21:09:52.443Z,20.50
2018-03-25T21:12:20.023Z,19.80
2018-03-25T21:14:47.663Z,19.63
2018-03-25T21:17:15.268Z,22.40
2018-03-25T21:19:42.844Z,20.83
2018-03-25T21:22:10.492Z,21.20
2018-03-25T21:24:38.434Z,19.40
2018-03-25T21:27:06.065Z,20.43
2018-03-25T21:29:33.715Z,21.10
2018-03-25T21:32:01.323Z,21.07
2018-03-25T21:34:28.899Z,22.20
2018-03-25T21:36:56.518Z,19.90
2018-03-25T21:39:24.128Z,21.10
2018-03-25T21:41:51.737Z,24.70
2018-03-25T21:44:19.371Z,20.87
2018-03-25T21:46:46.941Z,22.20
2018-03-25T21:49:14.525Z,24.40
2018-03-25T21:51:42.203Z,27.30
2018-03-25T21:54:09.888Z,24.07
2018-03-25T21:56:37.510Z,22.63
2018-03-25T21:59:05.135Z,22.60
2018-03-25T22:01:32.736Z,22.47
2018-03-25T22:04:00.310Z,19.40
2018-03-25T22:06:27.930Z,22.40
2018-03-25T22:08:55.516Z,19.97
2018-03-25T22:11:23.099Z,19.30
2018-03-25T22:13:50.718Z,22.30
2018-03-25T22:16:18.305Z,19.40
2018-03-25T22:19:03.784Z,20.40
2018-03-25T22:21:31.383Z,18.93
2018-03-25T22:23:58.962Z,18.57
2018-03-25T22:26:26.634Z,19.90
2018-03-25T22:28:54.206Z,21.60
2018-03-25T22:31:21.790Z,20.50
2018-03-25T22:33:49.415Z,21.80
2018-03-25T22:36:16.997Z,21.17
2018-03-25T22:38:44.573Z,21.30
2018-03-25T22:41:12.188Z,22.70
2018-03-25T22:43:39.770Z,20.43
2018-03-25T22:46:08.193Z,23.50
2018-03-25T22:48:37.092Z,23.10
2018-03-25T22:51:04.822Z,21.57
2018-03-25T22:53:32.383Z,21.97
2018-03-25T22:55:59.997Z,21.67
2018-03-25T22:58:27.575Z,21.20
2018-03-25T23:00:55.159Z,20.70
2018-03-25T23:03:22.783Z,21.10
2018-03-25T23:05:50.366Z,19.80
2018-03-25T23:08:17.942Z,20.47
2018-03-25T23:10:45.555Z,18.40
2018-03-25T23:13:13.179Z,20.17
2018-03-25T23:15:40.761Z,20.40
2018-03-25T23:18:08.407Z,18.40
2018-03-25T23:20:35.999Z,17.10
2018-03-25T23:23:03.586Z,21.07
2018-03-25T23:25:31.200Z,14.53
2018-03-25T23:27:58.797Z,15.60
2018-03-25T23:30:26.387Z,17.07
2018-03-25T23:32:54.002Z,17.77
2018-03-25T23:35:21.578Z,16.53
2018-03-25T23:37:49.148Z,18.40
2018-03-25T23:40:16.763Z,16.97
2018-03-25T23:42:44.330Z,20.07
2018-03-25T23:45:11.952Z,20.23
2018-03-25T23:47:39.553Z,20.13
2018-03-25T23:50:07.130Z,18.97
2018-03-25T23:52:34.710Z,19.63
2018-03-25T23:55:02.334Z,19.90
2018-03-25T23:57:29.907Z,18.47
2018-03-25T23:59:57.481Z,19.33
